KSUU/SUU METAR and TAF weather

Enter ICAO airport designator
Station Type Date Time Source
KSUU METAR 2019/02/16 16:58 UTC NOAA

KSUU 161658Z AUTO 23011KT 10SM CLR 09/04 A3015 RMK AO2 SLP217 T00860042 $


Station Type Date Time Source
KSUU Decoded METAR 2019/02/16 16:58 UTC NOAA

Fairfield / Travis Air Force Base, CA, United States (KSUU) 38-16N 121-57W 22M
Feb 16, 2019 - 11:58 AM EST / 2019.02.16 1658 UTC
Wind: from the SW (230 degrees) at 13 MPH (11 KT):0
Visibility: 10 mile(s):0
Sky conditions: clear
Temperature: 47.5 F (8.6 C)
Dew Point: 39.6 F (4.2 C)
Relative Humidity: 73%
Pressure (altimeter): 30.15 in. Hg (1020 hPa)
ob: KSUU 161658Z AUTO 23011KT 10SM CLR 09/04 A3015 RMK AO2 SLP217 T00860042
cycle: 17

Station Type Date Time Source
KSUU TAF 2019/02/16 11:03 UTC NOAA

TAF KSUU 161100Z 1611/1717 22009KT 8000 -SHRA SCT030 BKN100 QNH3001INS
BECMG 1616/1617 22012G20KT 8000 -SHRA BKN030 BKN080 610309 QNH3008INS
TEMPO 1617/1624 22015G25KT
BECMG 1705/1706 22009KT 9999 SCT050 BKN090 QNH3008INS
BECMG 1711/1712 35009KT 8000 -RA BKN010 620209 QNH3008INS TX12/1623Z TN04/1613Z


Example: see airport list